Time;durP1;ratioP1;P1;durP2;ratioP2;P2;SDS_P1;SDS_P2;PMS_P1;PMS_P2;Temp;Humidity;BMP_temperature;BMP_pressure;BME280_temperature;BME280_humidity;BME280_pressure;Samples;Min_cycle;Max_cycle;Signal;HPM_P1;HPM_P2
2021/06/09 00:01:27;;;;;;;9.02;8.16;;;;;;;16.57;94.33;99786.94;2015334;77;22263;-72
2021/06/09 00:04:30;;;;;;;9.65;8.01;;;;;;;16.51;94.22;99789.66;2022645;80;20295;-72
2021/06/09 00:07:33;;;;;;;11.57;8.43;;;;;;;16.48;94.29;99795.00;2022992;80;20184;-73
2021/06/09 00:10:36;;;;;;;10.82;7.76;;;;;;;16.47;94.34;99795.88;2022723;80;20170;-72
2021/06/09 00:13:38;;;;;;;8.64;7.85;;;;;;;16.44;94.09;99802.06;2022622;80;20836;-72
2021/06/09 00:16:44;;;;;;;8.81;8.07;;;;;;;16.39;93.99;99795.19;2018931;78;20197;-72
2021/06/09 00:19:46;;;;;;;8.21;7.35;;;;;;;16.35;94.03;99797.03;2017358;80;20684;-72
2021/06/09 00:22:49;;;;;;;8.23;7.43;;;;;;;16.29;93.98;99792.75;2016808;80;20197;-72
2021/06/09 00:25:54;;;;;;;7.56;6.88;;;;;;;16.24;93.95;99797.25;2017470;80;20290;-72
2021/06/09 00:28:56;;;;;;;10.73;7.45;;;;;;;16.21;93.93;99801.69;2017211;80;20175;-72
2021/06/09 00:31:59;;;;;;;12.54;8.26;;;;;;;16.16;93.87;99799.19;2019998;78;23819;-72
2021/06/09 00:35:02;;;;;;;11.89;7.35;;;;;;;16.14;94.08;99798.31;2022535;80;20256;-72
2021/06/09 00:38:05;;;;;;;8.95;8.15;;;;;;;16.13;94.26;99788.72;2025691;80;20259;-73
2021/06/09 00:41:09;;;;;;;8.50;7.70;;;;;;;16.11;94.57;99790.53;2022996;80;20171;-72
2021/06/09 00:44:13;;;;;;;8.01;7.41;;;;;;;16.11;94.81;99787.91;2021944;80;20201;-72
2021/06/09 00:47:21;;;;;;;8.25;7.47;;;;;;;16.13;94.81;99788.72;2014301;78;20844;-73
2021/06/09 00:50:23;;;;;;;8.61;7.31;;;;;;;16.13;94.63;99791.34;2012681;80;20254;-72
2021/06/09 00:53:27;;;;;;;7.88;7.07;;;;;;;16.12;94.61;99789.63;2011819;80;20168;-73
2021/06/09 00:56:33;;;;;;;7.85;7.15;;;;;;;16.12;94.61;99789.63;2011822;80;20249;-73
2021/06/09 00:59:36;;;;;;;8.90;6.80;;;;;;;16.08;94.48;99792.34;2012218;80;20280;-73
2021/06/09 01:02:39;;;;;;;8.50;7.25;;;;;;;16.06;94.85;99794.16;2019181;77;20524;-72
2021/06/09 01:05:42;;;;;;;7.40;6.80;;;;;;;16.06;94.88;99794.16;2022444;80;20318;-72
2021/06/09 01:08:46;;;;;;;7.66;6.96;;;;;;;16.07;94.83;99801.09;2025769;80;20204;-72
2021/06/09 01:11:49;;;;;;;7.30;6.54;;;;;;;16.06;94.76;99797.63;2023211;80;20556;-72
2021/06/09 01:14:52;;;;;;;8.38;6.22;;;;;;;16.02;94.66;99796.84;2022688;80;20266;-73
2021/06/09 01:17:55;;;;;;;6.44;5.94;;;;;;;15.99;94.71;99796.91;2017174;77;26926;-72
2021/06/09 01:20:59;;;;;;;6.60;6.09;;;;;;;15.99;94.77;99801.28;2017831;80;20753;-72
2021/06/09 01:24:02;;;;;;;8.02;7.35;;;;;;;15.97;94.78;99798.66;2018049;80;20296;-72
2021/06/09 01:27:05;;;;;;;7.64;6.89;;;;;;;15.97;94.82;99796.03;2018466;80;20543;-73
2021/06/09 01:30:11;;;;;;;8.46;7.68;;;;;;;15.97;94.76;99803.88;2017286;80;20554;-72
2021/06/09 01:33:14;;;;;;;9.06;8.27;;;;;;;15.96;94.61;99804.78;2023550;77;20420;-72
2021/06/09 01:36:20;;;;;;;7.84;6.89;;;;;;;15.94;94.67;99805.72;2023134;80;20189;-72
2021/06/09 01:39:23;;;;;;;9.40;6.95;;;;;;;15.92;94.64;99803.13;2022995;80;20309;-72
2021/06/09 01:42:28;;;;;;;7.64;6.96;;;;;;;15.90;94.55;99809.28;2022837;80;20167;-72
2021/06/09 01:45:33;;;;;;;7.64;7.04;;;;;;;15.88;94.54;99814.56;2021125;78;20172;-72
2021/06/09 01:48:36;;;;;;;8.96;7.46;;;;;;;15.86;94.61;99810.25;2013564;80;20193;-73
2021/06/09 01:51:39;;;;;;;8.48;7.68;;;;;;;15.85;94.70;99811.16;2012972;80;20622;-72
2021/06/09 01:54:42;;;;;;;8.85;8.15;;;;;;;15.85;94.99;99813.75;2015963;80;20184;-72
2021/06/09 01:57:44;;;;;;;8.66;7.95;;;;;;;15.86;95.20;99812.88;2012796;80;20230;-72
2021/06/09 02:00:48;;;;;;;8.93;8.02;;;;;;;15.88;95.40;99808.47;2013748;77;20294;-73
2021/06/09 02:03:52;;;;;;;8.44;7.82;;;;;;;15.90;95.48;99809.28;2024920;80;20639;-73
2021/06/09 02:06:55;;;;;;;8.10;7.43;;;;;;;15.90;95.23;99804.06;2024092;80;20210;-73
2021/06/09 02:09:58;;;;;;;8.41;7.66;;;;;;;15.83;94.92;99805.94;2024820;80;20192;-73
2021/06/09 02:13:09;;;;;;;8.76;7.34;;;;;;;15.78;94.81;99802.53;2024124;80;20216;-73
2021/06/09 02:16:12;;;;;;;8.18;7.03;;;;;;;15.75;94.77;99807.81;2019758;78;20324;-73
2021/06/09 02:19:16;;;;;;;7.78;7.18;;;;;;;15.73;94.69;99804.38;2013527;80;20205;-73
2021/06/09 02:22:18;;;;;;;8.23;7.57;;;;;;;15.71;94.77;99814.88;2013522;80;20182;-72
2021/06/09 02:25:22;;;;;;;9.76;7.94;;;;;;;15.69;94.78;99800.97;2014225;80;20202;-73
2021/06/09 02:28:27;;;;;;;12.38;8.31;;;;;;;15.65;94.56;99808.91;2013779;80;20172;-72
2021/06/09 02:31:30;;;;;;;10.43;8.80;;;;;;;15.61;94.67;99794.97;2017217;80;20423;-73
2021/06/09 02:34:36;;;;;;;9.13;8.21;;;;;;;15.61;94.58;99804.59;2025370;80;20715;-72
2021/06/09 02:37:40;;;;;;;10.75;8.52;;;;;;;15.59;94.52;99795.91;2024964;80;20186;-73
2021/06/09 02:40:48;;;;;;;9.05;7.89;;;;;;;15.55;94.41;99797.69;2023826;80;20240;-72
2021/06/09 02:43:53;;;;;;;9.60;7.41;;;;;;;15.52;94.36;99795.13;2023988;80;20183;-73
2021/06/09 02:47:01;;;;;;;8.26;7.46;;;;;;;15.50;94.28;99796.91;2016847;78;23327;-74
2021/06/09 02:50:05;;;;;;;8.76;8.05;;;;;;;15.45;94.02;99792.66;2014459;80;20504;-73
2021/06/09 02:53:16;;;;;;;9.73;8.73;;;;;;;15.40;94.03;99793.59;2014002;80;20195;-73
2021/06/09 02:56:28;;;;;;;10.34;8.63;;;;;;;15.39;94.34;99783.16;2013606;80;20190;-72
2021/06/09 02:59:43;;;;;;;8.54;7.74;;;;;;;15.38;94.69;99790.13;2014416;80;20185;-72
2021/06/09 03:03:15;;;;;;;9.65;7.03;;;;;;;15.35;94.58;99789.34;2017550;77;20797;-72
2021/06/09 03:06:25;;;;;;;7.15;6.64;;;;;;;15.30;94.50;99792.03;2020771;80;20183;-74
2021/06/09 03:10:08;;;;;;;9.44;7.93;;;;;;;15.29;94.57;99799.91;2018137;80;20184;-73
2021/06/09 03:13:29;;;;;;;8.21;7.51;;;;;;;15.28;94.80;99791.22;2017030;80;20834;-74
2021/06/09 03:16:44;;;;;;;7.97;7.19;;;;;;;15.29;94.79;99797.31;2014068;78;21688;-74
2021/06/09 03:20:03;;;;;;;8.39;7.07;;;;;;;15.26;94.68;99793.00;2013157;80;20180;-73
2021/06/09 03:23:36;;;;;;;9.06;7.47;;;;;;;15.20;94.38;99790.44;2012155;80;20221;-72
2021/06/09 03:26:56;;;;;;;7.21;6.56;;;;;;;15.15;94.27;99789.69;2010413;80;20767;-73
2021/06/09 03:30:05;;;;;;;6.91;6.29;;;;;;;15.06;94.00;99793.28;2012481;80;20227;-73
2021/06/09 03:33:11;;;;;;;6.64;6.00;;;;;;;15.00;93.83;99793.41;2011770;78;22443;-73
2021/06/09 03:36:21;;;;;;;7.05;6.43;;;;;;;14.95;93.88;99791.75;2012135;80;20954;-73
2021/06/09 03:39:24;;;;;;;8.07;6.35;;;;;;;14.91;93.88;99797.94;2012102;80;20172;-72
2021/06/09 03:42:29;;;;;;;6.47;5.66;;;;;;;14.87;94.05;99802.31;2012283;80;20212;-72
2021/06/09 03:45:35;;;;;;;6.72;6.13;;;;;;;14.87;94.23;99802.31;2012915;78;20211;-73
2021/06/09 03:48:39;;;;;;;6.61;5.99;;;;;;;14.91;94.56;99806.63;2017656;80;20163;-72
2021/06/09 03:51:43;;;;;;;8.66;6.22;;;;;;;14.94;94.74;99801.34;2017666;80;20167;-73
2021/06/09 03:54:48;;;;;;;7.39;6.78;;;;;;;14.98;95.10;99800.41;2018028;80;20249;-74
2021/06/09 03:57:54;;;;;;;6.45;5.97;;;;;;;15.00;95.15;99797.75;2017766;80;20694;-72
2021/06/09 04:00:59;;;;;;;5.90;5.46;;;;;;;15.04;95.33;99797.69;2017342;77;20648;-72
2021/06/09 04:04:04;;;;;;;5.51;5.03;;;;;;;15.04;94.98;99800.28;2022148;80;20195;-73
2021/06/09 04:07:08;;;;;;;9.77;5.90;;;;;;;15.02;94.71;99802.06;2022721;80;21190;-72
2021/06/09 04:10:12;;;;;;;6.18;5.78;;;;;;;15.01;94.31;99804.72;2022186;80;20199;-73
2021/06/09 04:13:16;;;;;;;5.81;5.41;;;;;;;14.94;94.05;99800.47;2022954;80;20196;-73
2021/06/09 04:16:21;;;;;;;5.79;5.29;;;;;;;14.93;94.02;99804.00;2019764;78;21740;-72
2021/06/09 04:19:26;;;;;;;6.31;5.25;;;;;;;14.92;93.79;99802.25;2017493;80;20479;-72
2021/06/09 04:22:30;;;;;;;8.13;5.39;;;;;;;14.92;93.68;99808.34;2017822;80;20191;-72
2021/06/09 04:25:32;;;;;;;5.78;5.22;;;;;;;14.93;93.73;99799.63;2017306;80;20176;-72
2021/06/09 04:28:35;;;;;;;23.60;5.36;;;;;;;14.97;93.82;99800.44;2017331;80;20172;-73
2021/06/09 04:31:38;;;;;;;5.09;4.79;;;;;;;14.99;93.77;99806.50;2019138;78;20183;-74
2021/06/09 04:34:46;;;;;;;5.61;5.19;;;;;;;15.00;93.80;99803.84;2023301;80;20692;-73
2021/06/09 04:37:50;;;;;;;10.64;6.47;;;;;;;15.04;94.11;99805.53;2022560;80;20200;-73
2021/06/09 04:40:54;;;;;;;66.90;5.51;;;;;;;15.10;94.32;99796.75;2022010;80;20229;-72
2021/06/09 04:43:57;;;;;;;12.45;5.29;;;;;;;15.16;94.16;99807.09;2022536;80;20280;-73
2021/06/09 04:47:01;;;;;;;12.59;5.46;;;;;;;15.22;93.98;99804.38;2015428;78;31560;-73
2021/06/09 04:50:04;;;;;;;7.60;5.00;;;;;;;15.26;93.90;99806.06;2011640;80;20652;-72
2021/06/09 04:53:11;;;;;;;5.61;5.31;;;;;;;15.38;94.07;99802.34;2012128;80;20168;-72
2021/06/09 04:56:14;;;;;;;54.21;5.86;;;;;;;15.48;93.97;99805.69;2011911;80;20651;-72
2021/06/09 04:59:16;;;;;;;5.19;4.82;;;;;;;15.57;93.82;99808.13;2012184;80;20189;-72
2021/06/09 05:02:20;;;;;;;5.29;4.89;;;;;;;15.61;93.84;99808.06;2019496;78;21977;-72
2021/06/09 05:05:23;;;;;;;6.47;5.39;;;;;;;15.73;93.68;99814.00;2022402;80;20205;-73
2021/06/09 05:08:25;;;;;;;6.65;5.29;;;;;;;15.83;93.21;99807.69;2022115;80;20216;-73
2021/06/09 05:11:43;;;;;;;12.59;4.36;;;;;;;15.91;92.77;99813.63;2022368;80;20188;-73
2021/06/09 05:14:53;;;;;;;6.15;5.75;;;;;;;16.08;92.61;99816.78;2022944;80;20183;-73
2021/06/09 05:17:57;;;;;;;5.07;4.70;;;;;;;16.36;91.40;99811.00;2016165;80;21527;-73
2021/06/09 05:21:00;;;;;;;5.63;5.32;;;;;;;16.49;90.66;99812.44;2017338;80;20775;-72
2021/06/09 05:24:04;;;;;;;6.18;5.78;;;;;;;16.76;89.88;99818.88;2017654;80;20222;-72
2021/06/09 05:27:09;;;;;;;6.47;5.80;;;;;;;17.07;88.96;99827.78;2017091;80;20215;-73
2021/06/09 05:30:15;;;;;;;6.55;5.95;;;;;;;17.43;87.59;99815.50;2016771;80;20604;-72
2021/06/09 05:33:20;;;;;;;6.06;5.53;;;;;;;17.76;85.94;99818.16;2022183;77;25377;-73
2021/06/09 05:36:23;;;;;;;5.14;4.84;;;;;;;18.05;84.64;99818.22;2022187;80;20183;-72
2021/06/09 05:39:26;;;;;;;5.86;5.46;;;;;;;18.52;82.61;99818.63;2022886;80;20204;-72
2021/06/09 05:42:30;;;;;;;5.97;5.31;;;;;;;18.84;81.13;99820.28;2021921;80;20187;-72
2021/06/09 05:45:34;;;;;;;6.38;5.96;;;;;;;19.08;80.07;99818.66;2020072;78;21680;-72
2021/06/09 05:48:41;;;;;;;6.91;6.31;;;;;;;19.35;78.85;99816.03;2009641;80;20180;-72
2021/06/09 05:51:45;;;;;;;7.95;5.93;;;;;;;19.57;78.13;99815.31;2010611;80;20177;-72
2021/06/09 05:54:48;;;;;;;6.35;5.70;;;;;;;19.71;77.35;99816.59;2010014;80;20258;-72
2021/06/09 05:57:52;;;;;;;7.24;6.72;;;;;;;20.07;75.95;99819.69;2011333;80;20221;-72
2021/06/09 06:01:02;;;;;;;7.29;6.61;;;;;;;20.19;75.06;99817.47;2013144;78;20690;-72
2021/06/09 06:04:07;;;;;;;8.48;7.66;;;;;;;20.26;74.63;99818.09;2021619;80;20194;-72
2021/06/09 06:07:11;;;;;;;10.75;8.52;;;;;;;20.40;75.38;99822.84;2021366;80;20175;-72
2021/06/09 06:10:15;;;;;;;14.63;9.79;;;;;;;20.71;74.29;99820.81;2021904;80;20209;-72
2021/06/09 06:13:19;;;;;;;9.86;8.90;;;;;;;21.25;72.86;99818.69;2021364;80;20183;-72
2021/06/09 06:16:21;;;;;;;11.01;8.60;;;;;;;21.74;71.02;99825.41;2018499;77;20984;-71
2021/06/09 06:19:37;;;;;;;11.15;9.21;;;;;;;22.14;69.19;99827.19;2015902;80;20187;-72
2021/06/09 06:22:40;;;;;;;10.95;9.50;;;;;;;22.51;67.90;99820.22;2015762;80;20199;-71
2021/06/09 06:25:44;;;;;;;10.09;8.73;;;;;;;22.89;66.55;99826.38;2018226;80;20267;-72
2021/06/09 06:28:48;;;;;;;10.19;8.09;;;;;;;23.01;63.81;99822.31;2017621;80;20233;-72
2021/06/09 06:31:51;;;;;;;8.56;7.76;;;;;;;23.29;63.30;99832.38;2020158;78;21083;-73
2021/06/09 06:34:56;;;;;;;7.38;6.76;;;;;;;23.37;62.51;99825.78;2022360;80;20236;-72
2021/06/09 06:37:59;;;;;;;9.11;8.30;;;;;;;23.38;59.69;99821.34;2022657;80;20159;-71
2021/06/09 06:41:03;;;;;;;8.30;7.47;;;;;;;23.50;61.13;99820.72;2023170;80;20193;-72
2021/06/09 06:44:06;;;;;;;13.35;8.14;;;;;;;23.48;62.06;99822.59;2022824;80;20198;-72
2021/06/09 06:47:10;;;;;;;8.84;7.44;;;;;;;23.40;62.41;99822.97;2015223;78;22101;-72
2021/06/09 06:50:14;;;;;;;7.71;6.97;;;;;;;23.33;61.14;99821.56;2012552;80;20281;-73
2021/06/09 06:53:17;;;;;;;7.65;6.70;;;;;;;23.42;61.45;99822.91;2012479;80;20195;-71
2021/06/09 06:56:21;;;;;;;8.01;6.41;;;;;;;23.65;60.84;99827.06;2012053;80;20165;-71
2021/06/09 06:59:25;;;;;;;8.75;6.57;;;;;;;23.93;59.99;99819.41;2011986;80;20193;-74
2021/06/09 07:02:30;;;;;;;6.40;5.80;;;;;;;24.21;59.14;99825.88;2020042;77;20690;-73
2021/06/09 07:05:33;;;;;;;6.71;5.51;;;;;;;24.49;58.56;99820.84;2022657;80;20968;-73
2021/06/09 07:08:38;;;;;;;7.66;5.20;;;;;;;24.72;56.23;99827.53;2022591;80;20769;-72
2021/06/09 07:11:46;;;;;;;7.57;5.93;;;;;;;24.92;55.80;99823.75;2022825;80;20347;-73
2021/06/09 07:14:51;;;;;;;7.53;5.96;;;;;;;25.04;55.45;99830.22;2022968;80;20254;-73
2021/06/09 07:17:57;;;;;;;6.31;5.63;;;;;;;25.15;56.32;99827.81;2017230;77;24682;-75
2021/06/09 07:20:59;;;;;;;6.82;5.70;;;;;;;25.21;55.84;99819.50;2018114;80;20228;-74
2021/06/09 07:24:03;;;;;;;6.99;6.24;;;;;;;25.27;55.38;99821.78;2017761;80;20192;-72
2021/06/09 07:27:06;;;;;;;6.72;5.86;;;;;;;25.20;54.22;99829.25;2017198;80;20194;-75
2021/06/09 07:30:14;;;;;;;6.91;5.54;;;;;;;25.19;54.68;99829.34;2017381;80;20202;-72
2021/06/09 07:33:16;;;;;;;8.50;6.06;;;;;;;25.17;56.51;99832.09;2017282;80;20171;-72
2021/06/09 07:36:35;;;;;;;9.40;6.04;;;;;;;25.17;58.43;99825.94;2018133;80;20734;-75
2021/06/09 07:39:43;;;;;;;6.64;5.43;;;;;;;25.21;56.94;99832.78;2017506;80;20529;-72
2021/06/09 07:42:57;;;;;;;12.54;5.71;;;;;;;25.17;55.69;99828.59;2017407;80;20173;-74
2021/06/09 07:46:01;;;;;;;6.91;5.54;;;;;;;25.25;56.76;99827.19;2013571;78;22236;-73
2021/06/09 07:49:08;;;;;;;8.10;5.05;;;;;;;25.41;55.57;99827.16;2007430;80;20563;-72
2021/06/09 07:52:12;;;;;;;8.05;5.61;;;;;;;25.53;55.41;99828.25;2007460;80;20750;-72
2021/06/09 07:55:15;;;;;;;12.75;6.44;;;;;;;25.65;53.11;99827.50;2008257;80;20202;-72
2021/06/09 07:58:22;;;;;;;8.79;6.39;;;;;;;25.72;53.46;99823.59;2007526;80;20165;-72
2021/06/09 08:01:28;;;;;;;9.77;5.68;;;;;;;25.70;51.34;99819.31;2011013;77;20625;-72
2021/06/09 08:04:31;;;;;;;7.95;6.11;;;;;;;25.73;52.61;99822.63;2017919;80;20199;-73
2021/06/09 08:07:39;;;;;;;8.86;5.71;;;;;;;25.90;52.52;99819.81;2017060;80;20205;-72
2021/06/09 08:10:43;;;;;;;7.89;6.07;;;;;;;26.07;51.79;99829.44;2017754;80;20187;-71
2021/06/09 08:13:46;;;;;;;8.65;5.63;;;;;;;26.28;51.58;99829.06;2016837;80;20278;-72
2021/06/09 08:16:49;;;;;;;8.44;6.20;;;;;;;26.35;49.50;99831.25;2014035;78;22496;-72
2021/06/09 08:19:52;;;;;;;5.18;4.63;;;;;;;26.49;49.11;99825.94;2013458;80;20213;-71
2021/06/09 08:22:54;;;;;;;5.41;4.91;;;;;;;26.63;48.64;99818.88;2012146;80;20168;-71
2021/06/09 08:25:57;;;;;;;6.81;5.47;;;;;;;26.71;46.10;99816.56;2012786;80;20730;-71
2021/06/09 08:29:00;;;;;;;5.34;4.84;;;;;;;26.70;46.33;99822.84;2012943;80;20198;-71
2021/06/09 08:32:07;;;;;;;6.36;4.46;;;;;;;26.77;47.49;99821.53;2014356;78;21529;-71
2021/06/09 08:35:11;;;;;;;6.35;4.50;;;;;;;26.79;45.86;99816.94;2022448;80;20298;-71
2021/06/09 08:38:13;;;;;;;4.29;3.90;;;;;;;26.87;47.42;99809.28;2022539;80;20191;-71
2021/06/09 08:41:18;;;;;;;3.81;3.47;;;;;;;26.92;46.81;99817.84;2022393;80;20182;-71
2021/06/09 08:44:22;;;;;;;4.63;4.26;;;;;;;26.98;45.45;99811.28;2022959;80;20423;-71
2021/06/09 08:47:26;;;;;;;5.00;4.60;;;;;;;26.97;44.99;99818.41;2018207;78;31941;-71
2021/06/09 08:50:29;;;;;;;4.55;4.15;;;;;;;27.01;45.68;99814.63;2017695;80;20168;-72
2021/06/09 08:53:38;;;;;;;4.31;3.83;;;;;;;27.16;45.68;99814.59;2017750;80;20262;-72
2021/06/09 08:56:42;;;;;;;4.72;3.33;;;;;;;27.17;43.32;99818.94;2018244;80;20228;-71
2021/06/09 08:59:44;;;;;;;3.67;3.40;;;;;;;27.36;45.17;99822.09;2017462;80;20209;-71
2021/06/09 09:02:47;;;;;;;4.11;3.81;;;;;;;27.35;44.51;99823.91;2020292;78;22253;-71
2021/06/09 09:05:50;;;;;;;6.61;3.64;;;;;;;27.39;43.07;99820.09;2021553;80;20309;-71
2021/06/09 09:08:54;;;;;;;4.32;3.35;;;;;;;27.43;43.31;99815.38;2022066;80;20171;-71
2021/06/09 09:11:57;;;;;;;4.49;2.90;;;;;;;27.38;42.62;99813.03;2021738;80;20202;-71
2021/06/09 09:15:00;;;;;;;7.63;3.34;;;;;;;27.54;44.93;99820.88;2022109;80;20628;-71
2021/06/09 09:18:04;;;;;;;3.92;3.58;;;;;;;27.67;43.65;99818.25;2021276;77;20325;-71
2021/06/09 09:21:09;;;;;;;4.88;3.03;;;;;;;27.55;40.66;99821.72;2021644;80;20249;-71
2021/06/09 09:24:13;;;;;;;3.22;2.86;;;;;;;27.52;42.15;99819.28;2021364;80;20251;-71
2021/06/09 09:27:39;;;;;;;3.21;2.91;;;;;;;27.65;42.70;99812.19;2020526;80;20639;-71
2021/06/09 09:30:45;;;;;;;4.85;2.80;;;;;;;27.71;42.25;99819.75;2021217;77;21418;-72
2021/06/09 09:33:48;;;;;;;5.18;3.15;;;;;;;27.95;43.23;99817.19;2022988;80;20570;-71
2021/06/09 09:37:06;;;;;;;6.55;3.36;;;;;;;28.00;42.61;99818.59;2022292;80;21190;-71
2021/06/09 09:40:18;;;;;;;5.68;2.89;;;;;;;27.82;41.39;99813.66;2022882;80;20233;-71
2021/06/09 09:43:20;;;;;;;5.45;2.96;;;;;;;27.97;42.62;99821.47;2022995;80;20179;-72
2021/06/09 09:46:32;;;;;;;5.71;2.61;;;;;;;28.14;41.43;99820.31;2019935;77;21292;-72
2021/06/09 09:49:39;;;;;;;3.15;2.85;;;;;;;28.16;41.06;99822.84;2016958;80;20584;-71
2021/06/09 09:52:48;;;;;;;3.63;3.03;;;;;;;28.34;40.00;99828.75;2017358;80;20225;-71
2021/06/09 09:56:02;;;;;;;4.38;2.60;;;;;;;28.15;38.69;99814.00;2017567;80;21157;-71
2021/06/09 09:59:10;;;;;;;3.53;2.61;;;;;;;28.18;37.65;99815.59;2017766;80;20189;-71
2021/06/09 10:02:16;;;;;;;2.22;2.09;;;;;;;28.17;37.23;99820.06;2019606;78;46623;-71
2021/06/09 10:05:19;;;;;;;2.28;2.08;;;;;;;28.36;40.14;99810.78;2022659;80;20655;-72
2021/06/09 10:08:26;;;;;;;2.79;2.40;;;;;;;28.60;40.33;99814.41;2022575;80;20163;-72
2021/06/09 10:11:29;;;;;;;2.33;1.90;;;;;;;28.63;36.92;99807.97;2022162;80;20220;-72
2021/06/09 10:14:46;;;;;;;2.67;2.20;;;;;;;28.66;37.47;99800.59;2022350;80;20183;-73
2021/06/09 10:17:49;;;;;;;4.82;2.77;;;;;;;28.82;38.71;99808.34;2016233;77;25357;-72
2021/06/09 10:20:53;;;;;;;3.20;2.64;;;;;;;28.67;36.79;99804.97;2016805;80;21036;-73
2021/06/09 10:24:15;;;;;;;3.86;2.70;;;;;;;28.66;37.83;99802.41;2017072;80;20276;-73
2021/06/09 10:27:20;;;;;;;3.39;2.11;;;;;;;28.87;38.88;99801.72;2017146;80;20728;-73
2021/06/09 10:30:29;;;;;;;5.13;2.56;;;;;;;28.83;36.49;99791.34;2015574;80;20392;-73
2021/06/09 10:33:33;;;;;;;2.61;2.17;;;;;;;28.72;36.66;99793.94;2026158;79;20305;-73
2021/06/09 10:36:49;;;;;;;2.80;2.39;;;;;;;28.67;37.32;99788.06;2027324;79;20295;-74
2021/06/09 10:39:52;;;;;;;2.81;2.03;;;;;;;28.89;38.10;99783.75;2027830;79;20196;-74
2021/06/09 10:42:58;;;;;;;3.33;1.84;;;;;;;29.12;38.60;99784.72;2027348;79;20174;-73
2021/06/09 10:46:02;;;;;;;2.74;2.54;;;;;;;28.95;38.28;99784.28;2024396;77;22146;-73
2021/06/09 10:49:06;;;;;;;4.28;1.99;;;;;;;28.50;38.09;99781.28;2021663;80;20213;-73
2021/06/09 10:52:11;;;;;;;3.90;2.21;;;;;;;28.40;37.57;99778.44;2022233;80;20236;-72
2021/06/09 10:55:14;;;;;;;4.19;1.98;;;;;;;27.96;38.77;99784.22;2022001;80;20661;-72
2021/06/09 10:58:16;;;;;;;3.85;2.40;;;;;;;28.19;40.71;99787.94;2021275;80;20369;-72
2021/06/09 11:01:28;;;;;;;4.66;1.90;;;;;;;28.43;39.42;99780.88;2023702;78;27689;-72
2021/06/09 11:04:39;;;;;;;2.63;2.09;;;;;;;28.58;38.40;99782.44;2027153;79;20183;-75
2021/06/09 11:07:44;;;;;;;2.63;2.30;;;;;;;29.01;39.44;99789.16;2026580;79;20522;-72
2021/06/09 11:10:49;;;;;;;2.33;2.13;;;;;;;29.22;39.66;99781.34;2026718;79;20635;-73
2021/06/09 11:13:52;;;;;;;3.17;2.06;;;;;;;29.29;39.13;99780.78;2027167;79;20190;-71
2021/06/09 11:16:56;;;;;;;2.88;1.83;;;;;;;29.19;37.60;99780.59;2022492;77;20186;-72
2021/06/09 11:20:18;;;;;;;2.31;2.05;;;;;;;29.14;36.50;99779.25;2021863;80;20679;-72
2021/06/09 11:23:36;;;;;;;2.28;2.06;;;;;;;29.46;38.33;99788.41;2021850;80;20171;-72
2021/06/09 11:26:40;;;;;;;4.21;2.17;;;;;;;29.60;36.57;99776.63;2022032;80;20777;-72
2021/06/09 11:29:42;;;;;;;2.11;1.86;;;;;;;29.88;37.39;99782.53;2021782;80;20178;-72
2021/06/09 11:32:45;;;;;;;5.14;2.01;;;;;;;30.07;36.41;99770.28;2025627;77;21555;-73
2021/06/09 11:35:51;;;;;;;7.31;2.28;;;;;;;30.00;35.40;99774.41;2022048;80;20926;-73
2021/06/09 11:39:10;;;;;;;3.78;1.89;;;;;;;29.87;34.46;99773.66;2021635;80;20203;-72
2021/06/09 11:42:14;;;;;;;7.09;1.98;;;;;;;30.07;36.68;99774.78;2022066;80;20171;-73
2021/06/09 11:45:22;;;;;;;2.85;1.76;;;;;;;30.24;36.66;99771.63;2020140;80;20248;-75
2021/06/09 11:48:27;;;;;;;3.74;1.61;;;;;;;30.33;34.29;99760.16;2021788;80;20290;-74
2021/06/09 11:51:39;;;;;;;2.69;1.77;;;;;;;30.60;35.29;99754.41;2021369;80;20221;-74
2021/06/09 11:54:43;;;;;;;3.17;1.90;;;;;;;30.53;32.55;99752.34;2021966;80;20171;-73
2021/06/09 11:58:05;;;;;;;3.49;1.70;;;;;;;30.51;34.06;99747.09;2022011;80;20693;-73
2021/06/09 12:01:11;;;;;;;4.50;2.08;;;;;;;30.23;33.48;99742.28;2018323;78;23716;-73
2021/06/09 12:04:22;;;;;;;1.64;1.51;;;;;;;30.17;35.70;99738.28;2016244;80;20191;-72
2021/06/09 12:07:27;;;;;;;3.51;1.45;;;;;;;29.84;34.92;99736.41;2016525;80;20184;-72
2021/06/09 12:10:30;;;;;;;4.61;1.30;;;;;;;29.82;34.70;99734.84;2015891;80;20197;-72
2021/06/09 12:13:33;;;;;;;2.19;1.23;;;;;;;30.10;35.29;99722.78;2017073;80;20290;-72
2021/06/09 12:16:36;;;;;;;3.04;1.30;;;;;;;30.37;34.37;99723.28;2018405;78;25665;-72
2021/06/09 12:19:43;;;;;;;1.67;1.29;;;;;;;30.46;31.62;99724.34;2022220;80;20251;-73
2021/06/09 12:22:51;;;;;;;3.38;1.21;;;;;;;30.62;34.26;99719.47;2021482;80;20167;-73
2021/06/09 12:25:54;;;;;;;2.22;1.16;;;;;;;30.70;32.13;99714.31;2021402;80;20234;-72
2021/06/09 12:29:05;;;;;;;2.33;1.05;;;;;;;30.88;32.50;99714.59;2021193;80;20890;-72
2021/06/09 12:32:34;;;;;;;1.20;1.10;;;;;;;30.67;32.13;99711.88;2016770;80;20188;-72
2021/06/09 12:35:38;;;;;;;6.70;1.23;;;;;;;30.00;32.45;99710.13;2015246;80;20193;-72
2021/06/09 12:38:41;;;;;;;1.30;1.20;;;;;;;29.81;33.00;99717.91;2016088;80;21000;-72
2021/06/09 12:41:45;;;;;;;2.19;1.29;;;;;;;30.02;34.05;99704.63;2016291;80;20244;-72
2021/06/09 12:44:49;;;;;;;1.21;1.20;;;;;;;30.32;34.52;99712.03;2016894;80;20176;-72
2021/06/09 12:47:52;;;;;;;1.98;1.30;;;;;;;30.53;33.17;99698.75;2010368;78;26348;-72
2021/06/09 12:50:57;;;;;;;1.26;1.16;;;;;;;30.71;33.80;99693.72;2011408;80;20582;-72
2021/06/09 12:54:00;;;;;;;4.10;1.46;;;;;;;30.93;32.95;99697.16;2011161;80;20192;-75
2021/06/09 12:57:04;;;;;;;3.64;1.35;;;;;;;31.14;32.18;99691.81;2011458;80;20229;-73
2021/06/09 13:00:28;;;;;;;3.97;1.51;;;;;;;31.12;32.99;99698.28;2011138;80;20270;-72
2021/06/09 13:03:39;;;;;;;2.83;1.40;;;;;;;30.59;33.27;99695.56;2017102;80;20284;-72
2021/06/09 13:06:42;;;;;;;1.90;1.24;;;;;;;29.99;32.83;99697.72;2017155;80;20861;-72
2021/06/09 13:09:54;;;;;;;1.83;1.30;;;;;;;29.69;35.18;99695.63;2016909;80;20164;-72
2021/06/09 13:12:57;;;;;;;2.39;1.35;;;;;;;29.29;33.39;99686.31;2016365;80;20168;-72
2021/06/09 13:16:01;;;;;;;5.34;1.54;;;;;;;29.42;35.97;99677.19;2014221;78;22209;-72
2021/06/09 13:19:08;;;;;;;2.05;1.29;;;;;;;29.63;36.00;99680.06;2011158;80;20202;-72
2021/06/09 13:22:13;;;;;;;4.46;1.23;;;;;;;29.96;35.48;99681.84;2010883;80;20196;-72
2021/06/09 13:25:21;;;;;;;5.35;2.13;;;;;;;30.18;34.78;99675.69;2011766;80;20188;-72
2021/06/09 13:28:31;;;;;;;2.14;1.11;;;;;;;30.46;34.81;99670.72;2011424;80;20703;-73
2021/06/09 13:31:37;;;;;;;2.39;1.30;;;;;;;30.68;34.43;99681.41;2010529;77;20934;-72
2021/06/09 13:34:50;;;;;;;1.89;1.30;;;;;;;30.83;32.10;99680.13;2011658;80;20196;-72
2021/06/09 13:37:56;;;;;;;11.01;1.34;;;;;;;30.60;31.65;99676.66;2011570;80;20212;-72
2021/06/09 13:40:59;;;;;;;3.86;1.17;;;;;;;30.21;32.78;99679.94;2011453;80;20285;-72
2021/06/09 13:44:02;;;;;;;3.64;1.29;;;;;;;29.62;33.86;99681.00;2011721;80;20666;-72
2021/06/09 13:47:05;;;;;;;3.54;1.30;;;;;;;29.61;34.29;99671.28;2017753;80;21677;-72
2021/06/09 13:50:14;;;;;;;1.76;1.50;;;;;;;29.86;35.62;99674.69;2021251;80;20309;-72
2021/06/09 13:53:17;;;;;;;3.38;1.50;;;;;;;30.03;33.55;99661.66;2021705;80;20674;-72
2021/06/09 13:56:36;;;;;;;3.22;1.50;;;;;;;30.07;35.74;99673.84;2022293;80;20720;-73
2021/06/09 13:59:53;;;;;;;1.60;1.50;;;;;;;30.40;35.64;99666.72;2022080;80;20164;-84
2021/06/09 14:02:56;;;;;;;3.74;1.70;;;;;;;30.60;33.58;99662.41;2017162;78;22030;-82
2021/06/09 14:05:59;;;;;;;2.66;1.50;;;;;;;30.68;33.78;99676.88;2017264;80;20322;-81
2021/06/09 14:09:08;;;;;;;3.64;1.60;;;;;;;30.62;34.23;99666.69;2017127;80;20282;-81
2021/06/09 14:12:11;;;;;;;5.07;1.71;;;;;;;30.68;33.91;99665.31;2017416;80;20258;-82
2021/06/09 14:15:26;;;;;;;5.13;1.80;;;;;;;30.59;35.03;99666.06;2016932;80;20676;-81
2021/06/09 14:18:36;;;;;;;5.50;1.69;;;;;;;30.54;34.52;99655.72;2022142;80;20187;-84
2021/06/09 14:21:39;;;;;;;4.14;1.40;;;;;;;30.73;34.08;99649.72;2022613;80;20167;-86
2021/06/09 14:24:41;;;;;;;2.80;1.51;;;;;;;30.85;33.72;99658.53;2022675;80;20223;-79
2021/06/09 14:28:03;;;;;;;2.99;2.11;;;;;;;30.61;31.86;99645.34;2023842;80;20179;-83
2021/06/09 14:31:17;;;;;;;1.84;1.38;;;;;;;30.81;34.78;99649.91;2019539;78;20188;-70
2021/06/09 14:34:23;;;;;;;2.16;1.10;;;;;;;31.02;32.67;99647.25;2017089;80;20180;-70